sensor_id;sensor_type;location;lat;lon;timestamp;temperature;humidity
52867;DHT22;38739;53.324;6.862;2022-07-03T00:01:53;18.30;99.90
52867;DHT22;38739;53.324;6.862;2022-07-03T00:04:18;18.20;99.90
52867;DHT22;38739;53.324;6.862;2022-07-03T00:06:46;18.20;99.90
52867;DHT22;38739;53.324;6.862;2022-07-03T00:09:12;18.20;99.90
52867;DHT22;38739;53.324;6.862;2022-07-03T00:11:38;18.20;99.90
52867;DHT22;38739;53.324;6.862;2022-07-03T00:14:04;18.20;99.90
52867;DHT22;38739;53.324;6.862;2022-07-03T00:16:30;18.20;99.90
52867;DHT22;38739;53.324;6.862;2022-07-03T00:18:57;18.20;99.90
52867;DHT22;38739;53.324;6.862;2022-07-03T00:21:34;18.10;99.90
52867;DHT22;38739;53.324;6.862;2022-07-03T00:24:13;18.10;99.90
52867;DHT22;38739;53.324;6.862;2022-07-03T00:26:41;18.10;99.90
52867;DHT22;38739;53.324;6.862;2022-07-03T00:29:09;18.10;99.90
52867;DHT22;38739;53.324;6.862;2022-07-03T00:31:35;18.10;99.90
52867;DHT22;38739;53.324;6.862;2022-07-03T00:34:01;18.00;99.90
52867;DHT22;38739;53.324;6.862;2022-07-03T00:36:38;18.10;99.90
52867;DHT22;38739;53.324;6.862;2022-07-03T00:39:05;18.00;99.90
52867;DHT22;38739;53.324;6.862;2022-07-03T00:41:33;18.00;99.90
52867;DHT22;38739;53.324;6.862;2022-07-03T00:43:59;18.00;99.90
52867;DHT22;38739;53.324;6.862;2022-07-03T00:46:26;17.90;99.90
52867;DHT22;38739;53.324;6.862;2022-07-03T00:48:53;17.90;99.90
52867;DHT22;38739;53.324;6.862;2022-07-03T00:51:24;17.80;99.90
52867;DHT22;38739;53.324;6.862;2022-07-03T00:53:53;17.80;99.90
52867;DHT22;38739;53.324;6.862;2022-07-03T00:56:26;17.80;99.90
52867;DHT22;38739;53.324;6.862;2022-07-03T00:58:55;17.70;99.90
52867;DHT22;38739;53.324;6.862;2022-07-03T01:01:25;17.60;99.90
52867;DHT22;38739;53.324;6.862;2022-07-03T01:07:02;17.50;99.90
52867;DHT22;38739;53.324;6.862;2022-07-03T01:12:20;17.40;99.90
52867;DHT22;38739;53.324;6.862;2022-07-03T01:15:05;17.40;99.90
52867;DHT22;38739;53.324;6.862;2022-07-03T01:17:34;17.30;99.90
52867;DHT22;38739;53.324;6.862;2022-07-03T01:20:03;17.30;99.90
52867;DHT22;38739;53.324;6.862;2022-07-03T01:22:30;17.20;99.90
52867;DHT22;38739;53.324;6.862;2022-07-03T01:25:13;17.20;99.90
52867;DHT22;38739;53.324;6.862;2022-07-03T01:30:14;17.20;99.90
52867;DHT22;38739;53.324;6.862;2022-07-03T01:32:45;17.10;99.90
52867;DHT22;38739;53.324;6.862;2022-07-03T01:35:15;17.10;99.90
52867;DHT22;38739;53.324;6.862;2022-07-03T01:37:44;17.00;99.90
52867;DHT22;38739;53.324;6.862;2022-07-03T01:40:10;17.00;99.90
52867;DHT22;38739;53.324;6.862;2022-07-03T01:42:36;17.00;99.90
52867;DHT22;38739;53.324;6.862;2022-07-03T01:45:09;17.00;99.90
52867;DHT22;38739;53.324;6.862;2022-07-03T01:47:37;16.90;99.90
52867;DHT22;38739;53.324;6.862;2022-07-03T01:50:06;16.90;99.90
52867;DHT22;38739;53.324;6.862;2022-07-03T01:52:32;16.90;99.90
52867;DHT22;38739;53.324;6.862;2022-07-03T01:55:00;16.80;99.90
52867;DHT22;38739;53.324;6.862;2022-07-03T01:57:44;16.80;99.90
52867;DHT22;38739;53.324;6.862;2022-07-03T02:00:11;16.80;99.90
52867;DHT22;38739;53.324;6.862;2022-07-03T02:02:43;16.80;99.90
52867;DHT22;38739;53.324;6.862;2022-07-03T02:05:14;16.70;99.90
52867;DHT22;38739;53.324;6.862;2022-07-03T02:08:15;16.70;99.90
52867;DHT22;38739;53.324;6.862;2022-07-03T02:10:47;16.60;99.90
52867;DHT22;38739;53.324;6.862;2022-07-03T02:13:23;16.60;99.90
52867;DHT22;38739;53.324;6.862;2022-07-03T02:15:52;16.60;99.90
52867;DHT22;38739;53.324;6.862;2022-07-03T02:24:09;16.50;99.90
52867;DHT22;38739;53.324;6.862;2022-07-03T02:26:39;16.40;99.90
52867;DHT22;38739;53.324;6.862;2022-07-03T02:29:07;16.40;99.90
52867;DHT22;38739;53.324;6.862;2022-07-03T02:31:40;16.40;99.90
52867;DHT22;38739;53.324;6.862;2022-07-03T02:34:07;16.30;99.90
52867;DHT22;38739;53.324;6.862;2022-07-03T02:36:35;16.30;99.90
52867;DHT22;38739;53.324;6.862;2022-07-03T02:39:01;16.30;99.90
52867;DHT22;38739;53.324;6.862;2022-07-03T02:41:42;16.30;99.90
52867;DHT22;38739;53.324;6.862;2022-07-03T02:52:08;16.10;99.90
52867;DHT22;38739;53.324;6.862;2022-07-03T02:54:46;16.10;99.90
52867;DHT22;38739;53.324;6.862;2022-07-03T02:57:14;16.00;99.90
52867;DHT22;38739;53.324;6.862;2022-07-03T02:59:57;16.00;99.90
52867;DHT22;38739;53.324;6.862;2022-07-03T03:05:47;15.90;99.90
52867;DHT22;38739;53.324;6.862;2022-07-03T03:10:47;15.90;99.90
52867;DHT22;38739;53.324;6.862;2022-07-03T03:13:15;15.80;99.90
52867;DHT22;38739;53.324;6.862;2022-07-03T03:16:05;15.80;99.90
52867;DHT22;38739;53.324;6.862;2022-07-03T03:18:37;15.80;99.90
52867;DHT22;38739;53.324;6.862;2022-07-03T03:21:08;15.80;99.90
52867;DHT22;38739;53.324;6.862;2022-07-03T03:23:43;15.80;99.90
52867;DHT22;38739;53.324;6.862;2022-07-03T03:26:11;15.80;99.90
52867;DHT22;38739;53.324;6.862;2022-07-03T03:28:38;15.70;99.90
52867;DHT22;38739;53.324;6.862;2022-07-03T03:31:04;15.70;99.90
52867;DHT22;38739;53.324;6.862;2022-07-03T03:33:36;15.70;99.90
52867;DHT22;38739;53.324;6.862;2022-07-03T03:36:05;15.70;99.90
52867;DHT22;38739;53.324;6.862;2022-07-03T03:38:32;15.70;99.90
52867;DHT22;38739;53.324;6.862;2022-07-03T03:40:58;15.70;99.90
52867;DHT22;38739;53.324;6.862;2022-07-03T03:43:24;15.80;99.90
52867;DHT22;38739;53.324;6.862;2022-07-03T03:45:50;15.70;99.90
52867;DHT22;38739;53.324;6.862;2022-07-03T03:48:16;15.70;99.90
52867;DHT22;38739;53.324;6.862;2022-07-03T03:50:41;15.80;99.90
52867;DHT22;38739;53.324;6.862;2022-07-03T03:53:12;15.80;99.90
52867;DHT22;38739;53.324;6.862;2022-07-03T03:55:52;15.80;99.90
52867;DHT22;38739;53.324;6.862;2022-07-03T03:58:18;15.80;99.90
52867;DHT22;38739;53.324;6.862;2022-07-03T04:00:44;15.80;99.90
52867;DHT22;38739;53.324;6.862;2022-07-03T04:03:09;15.80;99.90
52867;DHT22;38739;53.324;6.862;2022-07-03T04:05:35;15.80;99.90
52867;DHT22;38739;53.324;6.862;2022-07-03T04:08:01;15.80;99.90
52867;DHT22;38739;53.324;6.862;2022-07-03T04:10:26;15.80;99.90
52867;DHT22;38739;53.324;6.862;2022-07-03T04:12:52;15.70;99.90
52867;DHT22;38739;53.324;6.862;2022-07-03T04:15:18;15.80;99.90
52867;DHT22;38739;53.324;6.862;2022-07-03T04:17:43;15.70;99.90
52867;DHT22;38739;53.324;6.862;2022-07-03T04:20:10;15.70;99.90
52867;DHT22;38739;53.324;6.862;2022-07-03T04:22:35;15.70;99.90
52867;DHT22;38739;53.324;6.862;2022-07-03T04:25:01;15.70;99.90
52867;DHT22;38739;53.324;6.862;2022-07-03T04:27:27;15.70;99.90
52867;DHT22;38739;53.324;6.862;2022-07-03T04:29:52;15.60;99.90
52867;DHT22;38739;53.324;6.862;2022-07-03T04:32:18;15.60;99.90
52867;DHT22;38739;53.324;6.862;2022-07-03T04:34:44;15.60;99.90
52867;DHT22;38739;53.324;6.862;2022-07-03T04:37:09;15.60;99.90
52867;DHT22;38739;53.324;6.862;2022-07-03T04:39:35;15.60;99.90
52867;DHT22;38739;53.324;6.862;2022-07-03T04:42:01;15.60;99.90
52867;DHT22;38739;53.324;6.862;2022-07-03T04:44:26;15.50;99.90
52867;DHT22;38739;53.324;6.862;2022-07-03T04:46:53;15.60;99.90
52867;DHT22;38739;53.324;6.862;2022-07-03T04:49:18;15.60;99.90
52867;DHT22;38739;53.324;6.862;2022-07-03T04:51:44;15.60;99.90
52867;DHT22;38739;53.324;6.862;2022-07-03T04:54:10;15.60;99.90
52867;DHT22;38739;53.324;6.862;2022-07-03T04:56:35;15.70;99.90
52867;DHT22;38739;53.324;6.862;2022-07-03T04:59:01;15.70;99.90
52867;DHT22;38739;53.324;6.862;2022-07-03T05:01:26;15.80;99.90
52867;DHT22;38739;53.324;6.862;2022-07-03T05:03:52;15.90;99.90
52867;DHT22;38739;53.324;6.862;2022-07-03T05:06:18;15.90;99.90
52867;DHT22;38739;53.324;6.862;2022-07-03T05:08:43;16.00;99.90
52867;DHT22;38739;53.324;6.862;2022-07-03T05:11:09;16.10;99.90
52867;DHT22;38739;53.324;6.862;2022-07-03T05:13:35;16.10;99.90
52867;DHT22;38739;53.324;6.862;2022-07-03T05:16:01;16.20;99.90
52867;DHT22;38739;53.324;6.862;2022-07-03T05:18:26;16.30;99.90
52867;DHT22;38739;53.324;6.862;2022-07-03T05:20:52;16.30;99.90
52867;DHT22;38739;53.324;6.862;2022-07-03T05:23:18;16.40;99.90
52867;DHT22;38739;53.324;6.862;2022-07-03T05:25:43;16.40;99.90
52867;DHT22;38739;53.324;6.862;2022-07-03T05:28:09;16.40;99.90
52867;DHT22;38739;53.324;6.862;2022-07-03T05:30:35;16.40;99.90
52867;DHT22;38739;53.324;6.862;2022-07-03T05:33:00;16.50;99.90
52867;DHT22;38739;53.324;6.862;2022-07-03T05:35:26;16.50;99.90
52867;DHT22;38739;53.324;6.862;2022-07-03T05:37:52;16.60;99.90
52867;DHT22;38739;53.324;6.862;2022-07-03T05:40:18;16.70;99.90
52867;DHT22;38739;53.324;6.862;2022-07-03T05:42:43;16.80;99.90
52867;DHT22;38739;53.324;6.862;2022-07-03T05:45:10;16.90;99.90
52867;DHT22;38739;53.324;6.862;2022-07-03T05:47:35;16.90;99.90
52867;DHT22;38739;53.324;6.862;2022-07-03T05:50:02;17.10;99.90
52867;DHT22;38739;53.324;6.862;2022-07-03T05:52:28;17.10;99.90
52867;DHT22;38739;53.324;6.862;2022-07-03T05:54:54;17.20;99.90
52867;DHT22;38739;53.324;6.862;2022-07-03T05:57:20;17.30;99.90
52867;DHT22;38739;53.324;6.862;2022-07-03T05:59:46;17.40;99.90
52867;DHT22;38739;53.324;6.862;2022-07-03T06:02:12;17.50;99.90
52867;DHT22;38739;53.324;6.862;2022-07-03T06:04:38;17.60;99.90
52867;DHT22;38739;53.324;6.862;2022-07-03T06:07:03;17.70;99.90
52867;DHT22;38739;53.324;6.862;2022-07-03T06:09:29;17.80;99.90
52867;DHT22;38739;53.324;6.862;2022-07-03T06:11:55;17.90;99.90
52867;DHT22;38739;53.324;6.862;2022-07-03T06:14:20;18.00;99.90
52867;DHT22;38739;53.324;6.862;2022-07-03T06:16:46;18.10;99.90
52867;DHT22;38739;53.324;6.862;2022-07-03T06:19:12;18.30;99.90
52867;DHT22;38739;53.324;6.862;2022-07-03T06:21:38;18.30;99.90
52867;DHT22;38739;53.324;6.862;2022-07-03T06:24:04;18.40;99.90
52867;DHT22;38739;53.324;6.862;2022-07-03T06:26:29;18.60;99.90
52867;DHT22;38739;53.324;6.862;2022-07-03T06:28:55;18.70;99.90
52867;DHT22;38739;53.324;6.862;2022-07-03T06:31:21;18.80;99.90
52867;DHT22;38739;53.324;6.862;2022-07-03T06:33:47;18.80;99.90
52867;DHT22;38739;53.324;6.862;2022-07-03T06:36:12;18.90;99.90
52867;DHT22;38739;53.324;6.862;2022-07-03T06:38:38;18.90;99.90
52867;DHT22;38739;53.324;6.862;2022-07-03T06:41:04;19.00;99.90
52867;DHT22;38739;53.324;6.862;2022-07-03T06:43:29;19.00;99.90
52867;DHT22;38739;53.324;6.862;2022-07-03T06:45:55;19.00;99.90
52867;DHT22;38739;53.324;6.862;2022-07-03T06:48:21;19.10;99.90
52867;DHT22;38739;53.324;6.862;2022-07-03T06:50:46;19.10;99.90
52867;DHT22;38739;53.324;6.862;2022-07-03T06:53:12;19.20;99.90
52867;DHT22;38739;53.324;6.862;2022-07-03T06:55:38;19.30;99.90
52867;DHT22;38739;53.324;6.862;2022-07-03T06:58:04;19.40;99.90
52867;DHT22;38739;53.324;6.862;2022-07-03T07:00:29;19.50;99.90
52867;DHT22;38739;53.324;6.862;2022-07-03T07:02:55;19.60;99.90
52867;DHT22;38739;53.324;6.862;2022-07-03T07:05:21;19.90;99.90
52867;DHT22;38739;53.324;6.862;2022-07-03T07:07:48;20.00;99.90
52867;DHT22;38739;53.324;6.862;2022-07-03T07:10:14;20.10;99.90
52867;DHT22;38739;53.324;6.862;2022-07-03T07:12:39;20.30;99.90
52867;DHT22;38739;53.324;6.862;2022-07-03T07:15:05;20.40;99.90
52867;DHT22;38739;53.324;6.862;2022-07-03T07:17:31;20.60;99.90
52867;DHT22;38739;53.324;6.862;2022-07-03T07:19:57;20.80;99.90
52867;DHT22;38739;53.324;6.862;2022-07-03T07:22:23;21.10;99.90
52867;DHT22;38739;53.324;6.862;2022-07-03T07:24:51;21.40;99.90
52867;DHT22;38739;53.324;6.862;2022-07-03T07:27:17;21.60;99.90
52867;DHT22;38739;53.324;6.862;2022-07-03T07:29:43;21.80;99.90
52867;DHT22;38739;53.324;6.862;2022-07-03T07:32:09;22.10;99.90
52867;DHT22;38739;53.324;6.862;2022-07-03T07:34:35;22.10;99.90
52867;DHT22;38739;53.324;6.862;2022-07-03T07:37:00;22.00;99.90
52867;DHT22;38739;53.324;6.862;2022-07-03T07:39:26;21.90;99.90
52867;DHT22;38739;53.324;6.862;2022-07-03T07:41:52;21.80;99.90
52867;DHT22;38739;53.324;6.862;2022-07-03T07:44:18;21.60;99.90
52867;DHT22;38739;53.324;6.862;2022-07-03T07:46:43;21.60;99.90
52867;DHT22;38739;53.324;6.862;2022-07-03T07:49:09;21.70;99.90
52867;DHT22;38739;53.324;6.862;2022-07-03T07:51:35;21.80;99.90
52867;DHT22;38739;53.324;6.862;2022-07-03T07:54:00;21.80;99.90
52867;DHT22;38739;53.324;6.862;2022-07-03T07:56:26;21.80;99.90
52867;DHT22;38739;53.324;6.862;2022-07-03T07:58:52;21.70;99.90
52867;DHT22;38739;53.324;6.862;2022-07-03T08:01:19;21.60;99.90
52867;DHT22;38739;53.324;6.862;2022-07-03T08:04:03;21.50;99.90
52867;DHT22;38739;53.324;6.862;2022-07-03T08:06:48;21.40;99.90
52867;DHT22;38739;53.324;6.862;2022-07-03T08:09:13;21.30;99.90
52867;DHT22;38739;53.324;6.862;2022-07-03T08:11:39;21.20;99.90
52867;DHT22;38739;53.324;6.862;2022-07-03T08:14:05;21.30;99.90
52867;DHT22;38739;53.324;6.862;2022-07-03T08:16:34;21.50;99.90
52867;DHT22;38739;53.324;6.862;2022-07-03T08:19:00;21.70;99.90
52867;DHT22;38739;53.324;6.862;2022-07-03T08:21:26;22.00;99.90
52867;DHT22;38739;53.324;6.862;2022-07-03T08:23:52;22.00;99.90
52867;DHT22;38739;53.324;6.862;2022-07-03T08:26:18;22.30;99.90
52867;DHT22;38739;53.324;6.862;2022-07-03T08:28:43;22.70;99.90
52867;DHT22;38739;53.324;6.862;2022-07-03T08:31:09;23.10;99.90
52867;DHT22;38739;53.324;6.862;2022-07-03T08:33:35;23.10;99.90
52867;DHT22;38739;53.324;6.862;2022-07-03T08:36:01;23.10;99.90
52867;DHT22;38739;53.324;6.862;2022-07-03T08:38:31;23.10;99.90
52867;DHT22;38739;53.324;6.862;2022-07-03T08:41:02;22.90;99.90
52867;DHT22;38739;53.324;6.862;2022-07-03T08:43:28;22.80;99.90
52867;DHT22;38739;53.324;6.862;2022-07-03T08:45:56;22.80;99.90
52867;DHT22;38739;53.324;6.862;2022-07-03T08:48:23;22.90;99.90
52867;DHT22;38739;53.324;6.862;2022-07-03T08:50:50;23.10;99.90
52867;DHT22;38739;53.324;6.862;2022-07-03T08:53:18;23.20;99.90
52867;DHT22;38739;53.324;6.862;2022-07-03T08:55:45;23.40;99.90
52867;DHT22;38739;53.324;6.862;2022-07-03T08:58:14;23.50;99.90
52867;DHT22;38739;53.324;6.862;2022-07-03T09:00:44;23.30;99.90
52867;DHT22;38739;53.324;6.862;2022-07-03T09:03:11;23.50;99.90
52867;DHT22;38739;53.324;6.862;2022-07-03T09:05:38;23.60;99.90
52867;DHT22;38739;53.324;6.862;2022-07-03T09:08:07;23.70;99.90
52867;DHT22;38739;53.324;6.862;2022-07-03T09:10:33;24.00;99.90
52867;DHT22;38739;53.324;6.862;2022-07-03T09:13:00;24.10;99.90
52867;DHT22;38739;53.324;6.862;2022-07-03T09:15:26;24.60;99.90
52867;DHT22;38739;53.324;6.862;2022-07-03T09:18:07;24.90;99.90
52867;DHT22;38739;53.324;6.862;2022-07-03T09:20:38;24.90;99.90
52867;DHT22;38739;53.324;6.862;2022-07-03T09:25:57;25.30;99.90
52867;DHT22;38739;53.324;6.862;2022-07-03T09:28:24;25.60;99.90
52867;DHT22;38739;53.324;6.862;2022-07-03T09:30:58;25.90;99.90
52867;DHT22;38739;53.324;6.862;2022-07-03T09:33:24;26.30;99.70
52867;DHT22;38739;53.324;6.862;2022-07-03T09:35:54;26.50;99.10
52867;DHT22;38739;53.324;6.862;2022-07-03T09:38:20;26.60;97.90
52867;DHT22;38739;53.324;6.862;2022-07-03T09:40:47;26.40;96.80
52867;DHT22;38739;53.324;6.862;2022-07-03T09:43:13;26.50;97.20
52867;DHT22;38739;53.324;6.862;2022-07-03T09:48:24;27.00;95.50
52867;DHT22;38739;53.324;6.862;2022-07-03T09:51:17;27.20;94.80
52867;DHT22;38739;53.324;6.862;2022-07-03T09:56:13;27.50;92.90
52867;DHT22;38739;53.324;6.862;2022-07-03T09:58:39;27.60;93.90
52867;DHT22;38739;53.324;6.862;2022-07-03T10:01:18;27.70;92.70
52867;DHT22;38739;53.324;6.862;2022-07-03T10:03:47;27.80;92.30
52867;DHT22;38739;53.324;6.862;2022-07-03T10:06:13;27.70;90.40
52867;DHT22;38739;53.324;6.862;2022-07-03T10:08:39;27.50;91.40
52867;DHT22;38739;53.324;6.862;2022-07-03T10:11:07;27.50;90.50
52867;DHT22;38739;53.324;6.862;2022-07-03T10:13:37;27.50;90.20
52867;DHT22;38739;53.324;6.862;2022-07-03T10:16:05;27.70;90.00
52867;DHT22;38739;53.324;6.862;2022-07-03T10:18:35;27.70;89.20
52867;DHT22;38739;53.324;6.862;2022-07-03T10:21:07;27.90;88.20
52867;DHT22;38739;53.324;6.862;2022-07-03T10:23:34;27.90;86.00
52867;DHT22;38739;53.324;6.862;2022-07-03T10:25:59;27.90;86.70
52867;DHT22;38739;53.324;6.862;2022-07-03T10:28:26;28.00;87.30
52867;DHT22;38739;53.324;6.862;2022-07-03T10:30:52;28.00;87.00
52867;DHT22;38739;53.324;6.862;2022-07-03T10:33:19;28.20;84.60
52867;DHT22;38739;53.324;6.862;2022-07-03T10:35:49;28.40;86.90
52867;DHT22;38739;53.324;6.862;2022-07-03T10:43:46;29.10;84.50
52867;DHT22;38739;53.324;6.862;2022-07-03T10:46:31;29.00;80.30
52867;DHT22;38739;53.324;6.862;2022-07-03T10:51:23;29.10;76.60
52867;DHT22;38739;53.324;6.862;2022-07-03T10:53:49;29.40;77.20
52867;DHT22;38739;53.324;6.862;2022-07-03T10:56:16;29.70;75.80
52867;DHT22;38739;53.324;6.862;2022-07-03T10:58:58;29.80;74.70
52867;DHT22;38739;53.324;6.862;2022-07-03T11:01:28;29.80;73.00
52867;DHT22;38739;53.324;6.862;2022-07-03T11:03:59;29.80;74.40
52867;DHT22;38739;53.324;6.862;2022-07-03T11:09:13;30.20;76.70
52867;DHT22;38739;53.324;6.862;2022-07-03T11:11:46;30.40;73.50
52867;DHT22;38739;53.324;6.862;2022-07-03T11:16:48;30.50;74.50
52867;DHT22;38739;53.324;6.862;2022-07-03T11:19:15;30.30;73.90
52867;DHT22;38739;53.324;6.862;2022-07-03T11:21:50;30.10;73.50
52867;DHT22;38739;53.324;6.862;2022-07-03T11:24:37;30.20;72.80
52867;DHT22;38739;53.324;6.862;2022-07-03T11:27:21;30.40;76.00
52867;DHT22;38739;53.324;6.862;2022-07-03T11:29:51;30.50;72.70
52867;DHT22;38739;53.324;6.862;2022-07-03T11:32:43;30.50;72.00
52867;DHT22;38739;53.324;6.862;2022-07-03T11:38:09;30.50;72.10
52867;DHT22;38739;53.324;6.862;2022-07-03T11:40:36;30.20;71.90
52867;DHT22;38739;53.324;6.862;2022-07-03T11:43:06;30.10;72.50
52867;DHT22;38739;53.324;6.862;2022-07-03T11:45:32;30.10;71.60
52867;DHT22;38739;53.324;6.862;2022-07-03T11:47:58;29.80;73.20
52867;DHT22;38739;53.324;6.862;2022-07-03T11:50:43;29.70;73.20
52867;DHT22;38739;53.324;6.862;2022-07-03T11:53:31;29.50;71.50
52867;DHT22;38739;53.324;6.862;2022-07-03T11:56:12;29.60;72.30
52867;DHT22;38739;53.324;6.862;2022-07-03T11:58:46;29.60;75.50
52867;DHT22;38739;53.324;6.862;2022-07-03T12:01:29;29.40;79.30
52867;DHT22;38739;53.324;6.862;2022-07-03T12:09:21;28.50;85.60
52867;DHT22;38739;53.324;6.862;2022-07-03T12:11:58;28.20;87.40
52867;DHT22;38739;53.324;6.862;2022-07-03T12:17:06;28.10;89.00
52867;DHT22;38739;53.324;6.862;2022-07-03T12:19:32;27.70;90.30
52867;DHT22;38739;53.324;6.862;2022-07-03T12:21:58;27.50;91.10
52867;DHT22;38739;53.324;6.862;2022-07-03T12:24:24;27.20;91.40
52867;DHT22;38739;53.324;6.862;2022-07-03T12:26:50;27.00;92.10
52867;DHT22;38739;53.324;6.862;2022-07-03T12:29:16;26.80;92.80
52867;DHT22;38739;53.324;6.862;2022-07-03T12:31:45;26.50;93.20
52867;DHT22;38739;53.324;6.862;2022-07-03T12:34:12;26.50;94.00
52867;DHT22;38739;53.324;6.862;2022-07-03T12:36:39;27.00;94.30
52867;DHT22;38739;53.324;6.862;2022-07-03T12:39:04;27.10;94.00
52867;DHT22;38739;53.324;6.862;2022-07-03T12:41:30;27.00;93.80
52867;DHT22;38739;53.324;6.862;2022-07-03T12:43:58;26.80;94.70
52867;DHT22;38739;53.324;6.862;2022-07-03T12:46:27;26.50;95.30
52867;DHT22;38739;53.324;6.862;2022-07-03T12:48:56;26.10;96.40
52867;DHT22;38739;53.324;6.862;2022-07-03T12:51:50;25.80;96.90
52867;DHT22;38739;53.324;6.862;2022-07-03T12:54:31;25.50;97.00
52867;DHT22;38739;53.324;6.862;2022-07-03T12:57:07;25.30;98.60
52867;DHT22;38739;53.324;6.862;2022-07-03T13:02:38;25.40;99.50
52867;DHT22;38739;53.324;6.862;2022-07-03T13:05:23;25.30;99.30
52867;DHT22;38739;53.324;6.862;2022-07-03T13:07:55;25.10;99.50
52867;DHT22;38739;53.324;6.862;2022-07-03T13:10:23;25.10;99.90
52867;DHT22;38739;53.324;6.862;2022-07-03T13:15:16;26.30;99.90
52867;DHT22;38739;53.324;6.862;2022-07-03T13:20:29;26.70;97.70
52867;DHT22;38739;53.324;6.862;2022-07-03T13:23:04;27.00;97.50
52867;DHT22;38739;53.324;6.862;2022-07-03T13:25:31;26.90;96.80
52867;DHT22;38739;53.324;6.862;2022-07-03T13:28:08;26.70;97.20
52867;DHT22;38739;53.324;6.862;2022-07-03T13:30:34;26.40;96.60
52867;DHT22;38739;53.324;6.862;2022-07-03T13:33:01;25.90;97.40
52867;DHT22;38739;53.324;6.862;2022-07-03T13:35:28;25.50;98.20
52867;DHT22;38739;53.324;6.862;2022-07-03T13:37:54;25.30;99.20
52867;DHT22;38739;53.324;6.862;2022-07-03T13:40:20;25.10;99.20
52867;DHT22;38739;53.324;6.862;2022-07-03T13:42:47;25.20;99.90
52867;DHT22;38739;53.324;6.862;2022-07-03T13:45:13;25.60;99.90
52867;DHT22;38739;53.324;6.862;2022-07-03T13:47:38;26.00;98.80
52867;DHT22;38739;53.324;6.862;2022-07-03T13:50:04;26.10;98.40
52867;DHT22;38739;53.324;6.862;2022-07-03T13:52:30;26.10;97.10
52867;DHT22;38739;53.324;6.862;2022-07-03T13:54:56;25.80;97.30
52867;DHT22;38739;53.324;6.862;2022-07-03T13:57:22;25.80;97.70
52867;DHT22;38739;53.324;6.862;2022-07-03T13:59:47;25.70;97.50
52867;DHT22;38739;53.324;6.862;2022-07-03T14:02:14;25.70;97.40
52867;DHT22;38739;53.324;6.862;2022-07-03T14:04:40;25.60;97.50
52867;DHT22;38739;53.324;6.862;2022-07-03T14:07:05;25.60;97.40
52867;DHT22;38739;53.324;6.862;2022-07-03T14:09:31;25.60;97.80
52867;DHT22;38739;53.324;6.862;2022-07-03T14:11:57;25.60;98.20
52867;DHT22;38739;53.324;6.862;2022-07-03T14:14:22;25.60;97.80
52867;DHT22;38739;53.324;6.862;2022-07-03T14:16:48;25.30;97.40
52867;DHT22;38739;53.324;6.862;2022-07-03T14:19:14;25.00;98.40
52867;DHT22;38739;53.324;6.862;2022-07-03T14:21:39;24.60;98.60
52867;DHT22;38739;53.324;6.862;2022-07-03T14:24:08;24.30;99.20
52867;DHT22;38739;53.324;6.862;2022-07-03T14:26:35;24.10;99.90
52867;DHT22;38739;53.324;6.862;2022-07-03T14:29:19;23.80;99.90
52867;DHT22;38739;53.324;6.862;2022-07-03T14:32:04;23.60;99.90
52867;DHT22;38739;53.324;6.862;2022-07-03T14:34:48;23.20;99.90
52867;DHT22;38739;53.324;6.862;2022-07-03T14:37:14;23.00;99.90
52867;DHT22;38739;53.324;6.862;2022-07-03T14:39:46;22.80;99.90
52867;DHT22;38739;53.324;6.862;2022-07-03T14:42:12;22.70;99.90
52867;DHT22;38739;53.324;6.862;2022-07-03T14:44:37;22.60;99.90
52867;DHT22;38739;53.324;6.862;2022-07-03T14:47:03;22.50;99.90
52867;DHT22;38739;53.324;6.862;2022-07-03T14:49:29;22.30;99.90
52867;DHT22;38739;53.324;6.862;2022-07-03T14:51:55;22.00;99.90
52867;DHT22;38739;53.324;6.862;2022-07-03T14:54:21;21.70;99.90
52867;DHT22;38739;53.324;6.862;2022-07-03T14:56:54;21.50;99.90
52867;DHT22;38739;53.324;6.862;2022-07-03T15:01:56;20.90;99.90
52867;DHT22;38739;53.324;6.862;2022-07-03T15:05:10;20.70;99.90
52867;DHT22;38739;53.324;6.862;2022-07-03T15:07:44;20.50;99.90
52867;DHT22;38739;53.324;6.862;2022-07-03T15:10:14;20.20;99.90
52867;DHT22;38739;53.324;6.862;2022-07-03T15:12:49;20.10;99.90
52867;DHT22;38739;53.324;6.862;2022-07-03T15:15:18;20.10;99.90
52867;DHT22;38739;53.324;6.862;2022-07-03T15:17:45;20.00;99.90
52867;DHT22;38739;53.324;6.862;2022-07-03T15:20:12;19.80;99.90
52867;DHT22;38739;53.324;6.862;2022-07-03T15:22:40;19.80;99.90
52867;DHT22;38739;53.324;6.862;2022-07-03T15:25:09;19.80;99.90
52867;DHT22;38739;53.324;6.862;2022-07-03T15:27:35;19.80;99.90
52867;DHT22;38739;53.324;6.862;2022-07-03T15:30:02;19.70;99.90
52867;DHT22;38739;53.324;6.862;2022-07-03T15:32:28;19.70;99.90
52867;DHT22;38739;53.324;6.862;2022-07-03T15:34:53;19.70;99.90
52867;DHT22;38739;53.324;6.862;2022-07-03T15:40:10;19.80;99.90
52867;DHT22;38739;53.324;6.862;2022-07-03T15:48:07;19.90;99.90
52867;DHT22;38739;53.324;6.862;2022-07-03T15:53:44;20.30;99.90
52867;DHT22;38739;53.324;6.862;2022-07-03T15:56:13;20.50;99.90
52867;DHT22;38739;53.324;6.862;2022-07-03T15:58:49;20.70;99.90
52867;DHT22;38739;53.324;6.862;2022-07-03T16:01:18;20.90;99.90
52867;DHT22;38739;53.324;6.862;2022-07-03T16:04:06;21.10;99.90
52867;DHT22;38739;53.324;6.862;2022-07-03T16:06:38;21.10;99.90
52867;DHT22;38739;53.324;6.862;2022-07-03T16:09:06;21.20;99.90
52867;DHT22;38739;53.324;6.862;2022-07-03T16:11:34;21.20;99.90
52867;DHT22;38739;53.324;6.862;2022-07-03T16:14:00;21.20;99.90
52867;DHT22;38739;53.324;6.862;2022-07-03T16:16:28;21.20;99.90
52867;DHT22;38739;53.324;6.862;2022-07-03T16:18:55;21.20;99.90
52867;DHT22;38739;53.324;6.862;2022-07-03T16:21:24;21.10;99.90
52867;DHT22;38739;53.324;6.862;2022-07-03T16:23:50;21.00;99.90
52867;DHT22;38739;53.324;6.862;2022-07-03T16:26:17;20.90;99.90
52867;DHT22;38739;53.324;6.862;2022-07-03T16:28:42;20.70;99.90
52867;DHT22;38739;53.324;6.862;2022-07-03T16:31:11;20.60;99.90
52867;DHT22;38739;53.324;6.862;2022-07-03T16:33:42;20.50;99.90
52867;DHT22;38739;53.324;6.862;2022-07-03T16:36:20;20.30;99.90
52867;DHT22;38739;53.324;6.862;2022-07-03T16:39:06;20.20;99.90
52867;DHT22;38739;53.324;6.862;2022-07-03T16:41:34;20.10;99.90
52867;DHT22;38739;53.324;6.862;2022-07-03T16:44:04;20.00;99.90
52867;DHT22;38739;53.324;6.862;2022-07-03T16:46:31;19.90;99.90
52867;DHT22;38739;53.324;6.862;2022-07-03T16:48:58;19.80;99.90
52867;DHT22;38739;53.324;6.862;2022-07-03T16:51:34;19.70;99.90
52867;DHT22;38739;53.324;6.862;2022-07-03T16:54:01;19.70;99.90
52867;DHT22;38739;53.324;6.862;2022-07-03T16:56:28;19.70;99.90
52867;DHT22;38739;53.324;6.862;2022-07-03T16:58:55;19.70;99.90
52867;DHT22;38739;53.324;6.862;2022-07-03T17:01:21;19.90;99.90
52867;DHT22;38739;53.324;6.862;2022-07-03T17:03:48;20.10;99.90